sensor_id;sensor_type;location;lat;lon;timestamp;P1;durP1;ratioP1;P2;durP2;ratioP2
3633;SDS011;1833;42.718;23.270;2023-03-22T00:01:21;39.67;;;36.33;;
3633;SDS011;1833;42.718;23.270;2023-03-22T00:03:49;39.00;;;35.50;;
3633;SDS011;1833;42.718;23.270;2023-03-22T00:06:18;39.00;;;35.70;;
3633;SDS011;1833;42.718;23.270;2023-03-22T00:08:47;40.50;;;36.60;;
3633;SDS011;1833;42.718;23.270;2023-03-22T00:11:16;41.40;;;37.80;;
3633;SDS011;1833;42.718;23.270;2023-03-22T00:13:43;40.57;;;36.97;;
3633;SDS011;1833;42.718;23.270;2023-03-22T00:16:11;39.67;;;35.43;;
3633;SDS011;1833;42.718;23.270;2023-03-22T00:18:38;42.20;;;38.40;;
3633;SDS011;1833;42.718;23.270;2023-03-22T00:21:08;41.00;;;37.33;;
3633;SDS011;1833;42.718;23.270;2023-03-22T00:23:37;39.73;;;36.33;;
3633;SDS011;1833;42.718;23.270;2023-03-22T00:26:05;39.40;;;36.20;;
3633;SDS011;1833;42.718;23.270;2023-03-22T00:28:33;40.17;;;36.67;;
3633;SDS011;1833;42.718;23.270;2023-03-22T00:31:00;39.80;;;36.27;;
3633;SDS011;1833;42.718;23.270;2023-03-22T00:33:29;40.43;;;37.03;;
3633;SDS011;1833;42.718;23.270;2023-03-22T00:35:57;39.30;;;35.70;;
3633;SDS011;1833;42.718;23.270;2023-03-22T00:38:25;40.13;;;36.43;;
3633;SDS011;1833;42.718;23.270;2023-03-22T00:41:07;39.77;;;36.37;;
3633;SDS011;1833;42.718;23.270;2023-03-22T00:43:35;39.43;;;36.20;;
3633;SDS011;1833;42.718;23.270;2023-03-22T00:46:02;38.50;;;35.23;;
3633;SDS011;1833;42.718;23.270;2023-03-22T00:48:30;38.60;;;35.10;;
3633;SDS011;1833;42.718;23.270;2023-03-22T00:50:57;38.50;;;35.20;;
3633;SDS011;1833;42.718;23.270;2023-03-22T00:53:24;38.37;;;35.20;;
3633;SDS011;1833;42.718;23.270;2023-03-22T00:55:53;37.57;;;34.47;;
3633;SDS011;1833;42.718;23.270;2023-03-22T00:58:21;37.00;;;33.80;;
3633;SDS011;1833;42.718;23.270;2023-03-22T01:00:49;36.87;;;33.87;;
3633;SDS011;1833;42.718;23.270;2023-03-22T01:03:16;37.40;;;34.30;;
3633;SDS011;1833;42.718;23.270;2023-03-22T01:05:46;36.97;;;33.90;;
3633;SDS011;1833;42.718;23.270;2023-03-22T01:08:14;37.23;;;33.73;;
3633;SDS011;1833;42.718;23.270;2023-03-22T01:10:42;37.27;;;33.80;;
3633;SDS011;1833;42.718;23.270;2023-03-22T01:13:10;36.30;;;33.30;;
3633;SDS011;1833;42.718;23.270;2023-03-22T01:15:40;38.90;;;35.70;;
3633;SDS011;1833;42.718;23.270;2023-03-22T01:18:08;38.53;;;35.07;;
3633;SDS011;1833;42.718;23.270;2023-03-22T01:20:35;40.13;;;36.63;;
3633;SDS011;1833;42.718;23.270;2023-03-22T01:23:02;39.10;;;35.77;;
3633;SDS011;1833;42.718;23.270;2023-03-22T01:25:30;40.97;;;37.40;;
3633;SDS011;1833;42.718;23.270;2023-03-22T01:27:57;38.53;;;35.23;;
3633;SDS011;1833;42.718;23.270;2023-03-22T01:30:26;38.40;;;34.90;;
3633;SDS011;1833;42.718;23.270;2023-03-22T01:32:55;38.77;;;35.43;;
3633;SDS011;1833;42.718;23.270;2023-03-22T01:35:22;39.10;;;35.80;;
3633;SDS011;1833;42.718;23.270;2023-03-22T01:37:50;39.10;;;35.60;;
3633;SDS011;1833;42.718;23.270;2023-03-22T01:40:17;37.53;;;34.43;;
3633;SDS011;1833;42.718;23.270;2023-03-22T01:42:44;39.90;;;36.07;;
3633;SDS011;1833;42.718;23.270;2023-03-22T01:47:59;40.60;;;36.97;;
3633;SDS011;1833;42.718;23.270;2023-03-22T01:50:28;38.87;;;35.20;;
3633;SDS011;1833;42.718;23.270;2023-03-22T01:52:56;38.13;;;34.83;;
3633;SDS011;1833;42.718;23.270;2023-03-22T01:55:25;36.80;;;33.70;;
3633;SDS011;1833;42.718;23.270;2023-03-22T01:57:52;37.90;;;34.60;;
3633;SDS011;1833;42.718;23.270;2023-03-22T02:00:20;37.00;;;34.00;;
3633;SDS011;1833;42.718;23.270;2023-03-22T02:02:48;38.20;;;35.10;;
3633;SDS011;1833;42.718;23.270;2023-03-22T02:05:18;38.53;;;35.43;;
3633;SDS011;1833;42.718;23.270;2023-03-22T02:07:47;37.80;;;34.60;;
3633;SDS011;1833;42.718;23.270;2023-03-22T02:10:16;39.40;;;36.27;;
3633;SDS011;1833;42.718;23.270;2023-03-22T02:12:46;38.93;;;35.63;;
3633;SDS011;1833;42.718;23.270;2023-03-22T02:15:20;36.27;;;33.37;;
3633;SDS011;1833;42.718;23.270;2023-03-22T02:17:51;37.33;;;34.20;;
3633;SDS011;1833;42.718;23.270;2023-03-22T02:20:45;38.30;;;35.27;;
3633;SDS011;1833;42.718;23.270;2023-03-22T02:26:16;38.80;;;35.50;;
3633;SDS011;1833;42.718;23.270;2023-03-22T02:28:48;37.77;;;34.03;;
3633;SDS011;1833;42.718;23.270;2023-03-22T02:31:30;37.97;;;34.67;;
3633;SDS011;1833;42.718;23.270;2023-03-22T02:36:59;39.43;;;36.10;;
3633;SDS011;1833;42.718;23.270;2023-03-22T02:39:32;38.63;;;35.23;;
3633;SDS011;1833;42.718;23.270;2023-03-22T02:44:48;39.60;;;35.93;;
3633;SDS011;1833;42.718;23.270;2023-03-22T02:47:21;38.63;;;35.13;;
3633;SDS011;1833;42.718;23.270;2023-03-22T02:49:51;36.40;;;33.33;;
3633;SDS011;1833;42.718;23.270;2023-03-22T02:52:23;38.00;;;34.70;;
3633;SDS011;1833;42.718;23.270;2023-03-22T02:54:54;38.20;;;35.00;;
3633;SDS011;1833;42.718;23.270;2023-03-22T02:57:24;40.00;;;36.60;;
3633;SDS011;1833;42.718;23.270;2023-03-22T02:59:54;37.83;;;34.73;;
3633;SDS011;1833;42.718;23.270;2023-03-22T03:02:23;37.00;;;33.87;;
3633;SDS011;1833;42.718;23.270;2023-03-22T03:04:52;39.00;;;35.60;;
3633;SDS011;1833;42.718;23.270;2023-03-22T03:07:21;38.90;;;35.77;;
3633;SDS011;1833;42.718;23.270;2023-03-22T03:09:49;37.70;;;34.67;;
3633;SDS011;1833;42.718;23.270;2023-03-22T03:12:19;38.27;;;35.00;;
3633;SDS011;1833;42.718;23.270;2023-03-22T03:14:46;37.47;;;34.30;;
3633;SDS011;1833;42.718;23.270;2023-03-22T03:17:18;36.23;;;33.33;;
3633;SDS011;1833;42.718;23.270;2023-03-22T03:19:49;37.97;;;34.87;;
3633;SDS011;1833;42.718;23.270;2023-03-22T03:22:27;35.93;;;33.13;;
3633;SDS011;1833;42.718;23.270;2023-03-22T03:24:57;38.90;;;35.63;;
3633;SDS011;1833;42.718;23.270;2023-03-22T03:27:29;35.80;;;33.00;;
3633;SDS011;1833;42.718;23.270;2023-03-22T03:29:59;35.27;;;32.47;;
3633;SDS011;1833;42.718;23.270;2023-03-22T03:32:28;35.87;;;32.87;;
3633;SDS011;1833;42.718;23.270;2023-03-22T03:35:00;35.73;;;32.83;;
3633;SDS011;1833;42.718;23.270;2023-03-22T03:37:31;35.23;;;32.43;;
3633;SDS011;1833;42.718;23.270;2023-03-22T03:40:02;34.93;;;32.13;;
3633;SDS011;1833;42.718;23.270;2023-03-22T03:42:33;35.77;;;32.87;;
3633;SDS011;1833;42.718;23.270;2023-03-22T03:45:03;35.20;;;32.60;;
3633;SDS011;1833;42.718;23.270;2023-03-22T03:47:31;34.60;;;31.90;;
3633;SDS011;1833;42.718;23.270;2023-03-22T03:49:58;35.40;;;32.60;;
3633;SDS011;1833;42.718;23.270;2023-03-22T03:52:25;35.60;;;32.67;;
3633;SDS011;1833;42.718;23.270;2023-03-22T03:54:53;37.17;;;34.23;;
3633;SDS011;1833;42.718;23.270;2023-03-22T03:57:20;36.00;;;33.10;;
3633;SDS011;1833;42.718;23.270;2023-03-22T03:59:49;35.87;;;32.97;;
3633;SDS011;1833;42.718;23.270;2023-03-22T04:02:16;37.20;;;34.10;;
3633;SDS011;1833;42.718;23.270;2023-03-22T04:04:44;37.20;;;34.20;;
3633;SDS011;1833;42.718;23.270;2023-03-22T04:07:11;37.60;;;34.60;;
3633;SDS011;1833;42.718;23.270;2023-03-22T04:09:39;37.07;;;34.03;;
3633;SDS011;1833;42.718;23.270;2023-03-22T04:12:07;35.17;;;32.47;;
3633;SDS011;1833;42.718;23.270;2023-03-22T04:14:34;35.43;;;32.43;;
3633;SDS011;1833;42.718;23.270;2023-03-22T04:17:03;35.33;;;32.63;;
3633;SDS011;1833;42.718;23.270;2023-03-22T04:19:30;37.10;;;34.40;;
3633;SDS011;1833;42.718;23.270;2023-03-22T04:21:58;37.40;;;34.60;;
3633;SDS011;1833;42.718;23.270;2023-03-22T04:24:25;37.13;;;33.80;;
3633;SDS011;1833;42.718;23.270;2023-03-22T04:26:52;35.07;;;32.40;;
3633;SDS011;1833;42.718;23.270;2023-03-22T04:29:20;35.70;;;32.90;;
3633;SDS011;1833;42.718;23.270;2023-03-22T04:31:48;35.43;;;32.53;;
3633;SDS011;1833;42.718;23.270;2023-03-22T04:34:18;35.23;;;32.63;;
3633;SDS011;1833;42.718;23.270;2023-03-22T04:36:45;37.30;;;34.37;;
3633;SDS011;1833;42.718;23.270;2023-03-22T04:39:14;38.23;;;34.63;;
3633;SDS011;1833;42.718;23.270;2023-03-22T04:41:42;36.80;;;34.20;;
3633;SDS011;1833;42.718;23.270;2023-03-22T04:44:09;36.90;;;34.03;;
3633;SDS011;1833;42.718;23.270;2023-03-22T04:46:37;35.87;;;33.00;;
3633;SDS011;1833;42.718;23.270;2023-03-22T04:49:04;36.20;;;33.37;;
3633;SDS011;1833;42.718;23.270;2023-03-22T04:51:33;39.03;;;35.73;;
3633;SDS011;1833;42.718;23.270;2023-03-22T04:54:01;37.37;;;34.37;;
3633;SDS011;1833;42.718;23.270;2023-03-22T04:56:28;36.80;;;33.97;;
3633;SDS011;1833;42.718;23.270;2023-03-22T04:58:56;35.50;;;32.80;;
3633;SDS011;1833;42.718;23.270;2023-03-22T05:01:23;37.80;;;34.70;;
3633;SDS011;1833;42.718;23.270;2023-03-22T05:03:51;37.93;;;34.83;;
3633;SDS011;1833;42.718;23.270;2023-03-22T05:06:19;39.27;;;36.07;;
3633;SDS011;1833;42.718;23.270;2023-03-22T05:08:48;37.80;;;34.80;;
3633;SDS011;1833;42.718;23.270;2023-03-22T05:11:16;35.63;;;32.87;;
3633;SDS011;1833;42.718;23.270;2023-03-22T05:13:44;36.83;;;33.60;;
3633;SDS011;1833;42.718;23.270;2023-03-22T05:16:11;34.37;;;31.83;;
3633;SDS011;1833;42.718;23.270;2023-03-22T05:18:39;35.43;;;32.70;;
3633;SDS011;1833;42.718;23.270;2023-03-22T05:21:10;35.17;;;32.40;;
3633;SDS011;1833;42.718;23.270;2023-03-22T05:23:39;35.63;;;32.83;;
3633;SDS011;1833;42.718;23.270;2023-03-22T05:26:08;38.10;;;34.90;;
3633;SDS011;1833;42.718;23.270;2023-03-22T05:28:40;39.40;;;36.27;;
3633;SDS011;1833;42.718;23.270;2023-03-22T05:31:07;38.33;;;35.23;;
3633;SDS011;1833;42.718;23.270;2023-03-22T05:33:35;37.50;;;34.80;;
3633;SDS011;1833;42.718;23.270;2023-03-22T05:36:03;36.27;;;33.40;;
3633;SDS011;1833;42.718;23.270;2023-03-22T05:38:30;36.17;;;33.40;;
3633;SDS011;1833;42.718;23.270;2023-03-22T05:40:58;39.57;;;36.77;;
3633;SDS011;1833;42.718;23.270;2023-03-22T05:43:26;37.77;;;35.07;;
3633;SDS011;1833;42.718;23.270;2023-03-22T05:45:54;37.97;;;35.07;;
3633;SDS011;1833;42.718;23.270;2023-03-22T05:48:21;38.33;;;35.17;;
3633;SDS011;1833;42.718;23.270;2023-03-22T05:50:49;35.97;;;32.93;;
3633;SDS011;1833;42.718;23.270;2023-03-22T05:53:16;37.87;;;34.87;;
3633;SDS011;1833;42.718;23.270;2023-03-22T05:55:43;40.17;;;36.97;;
3633;SDS011;1833;42.718;23.270;2023-03-22T05:58:11;39.10;;;36.20;;
3633;SDS011;1833;42.718;23.270;2023-03-22T06:00:44;39.27;;;36.17;;
3633;SDS011;1833;42.718;23.270;2023-03-22T06:03:13;40.47;;;36.63;;
3633;SDS011;1833;42.718;23.270;2023-03-22T06:05:40;42.17;;;38.97;;
3633;SDS011;1833;42.718;23.270;2023-03-22T06:08:08;40.33;;;37.03;;
3633;SDS011;1833;42.718;23.270;2023-03-22T06:10:35;41.33;;;38.00;;
3633;SDS011;1833;42.718;23.270;2023-03-22T06:13:02;39.17;;;36.37;;
3633;SDS011;1833;42.718;23.270;2023-03-22T06:15:30;39.90;;;36.80;;
3633;SDS011;1833;42.718;23.270;2023-03-22T06:17:58;56.37;;;49.90;;
3633;SDS011;1833;42.718;23.270;2023-03-22T06:20:26;38.83;;;35.50;;
3633;SDS011;1833;42.718;23.270;2023-03-22T06:22:53;39.20;;;35.70;;
3633;SDS011;1833;42.718;23.270;2023-03-22T06:25:21;38.00;;;34.80;;
3633;SDS011;1833;42.718;23.270;2023-03-22T06:27:48;39.20;;;35.70;;
3633;SDS011;1833;42.718;23.270;2023-03-22T06:30:15;37.80;;;34.40;;
3633;SDS011;1833;42.718;23.270;2023-03-22T06:32:43;39.00;;;35.30;;
3633;SDS011;1833;42.718;23.270;2023-03-22T06:35:12;39.67;;;36.27;;
3633;SDS011;1833;42.718;23.270;2023-03-22T06:37:39;38.60;;;35.40;;
3633;SDS011;1833;42.718;23.270;2023-03-22T06:40:08;40.57;;;36.80;;
3633;SDS011;1833;42.718;23.270;2023-03-22T06:42:35;39.37;;;36.00;;
3633;SDS011;1833;42.718;23.270;2023-03-22T06:45:03;37.83;;;34.63;;
3633;SDS011;1833;42.718;23.270;2023-03-22T06:47:30;36.40;;;33.50;;
3633;SDS011;1833;42.718;23.270;2023-03-22T06:49:58;37.37;;;34.13;;
3633;SDS011;1833;42.718;23.270;2023-03-22T06:52:27;35.83;;;33.00;;
3633;SDS011;1833;42.718;23.270;2023-03-22T06:54:54;39.50;;;36.40;;
3633;SDS011;1833;42.718;23.270;2023-03-22T06:57:22;39.00;;;35.80;;
3633;SDS011;1833;42.718;23.270;2023-03-22T06:59:49;37.17;;;34.17;;
3633;SDS011;1833;42.718;23.270;2023-03-22T07:02:18;40.83;;;37.60;;
3633;SDS011;1833;42.718;23.270;2023-03-22T07:04:45;37.23;;;34.33;;
3633;SDS011;1833;42.718;23.270;2023-03-22T07:07:13;39.30;;;36.20;;
3633;SDS011;1833;42.718;23.270;2023-03-22T07:09:41;129.97;;;88.93;;
3633;SDS011;1833;42.718;23.270;2023-03-22T07:12:09;119.33;;;84.50;;
3633;SDS011;1833;42.718;23.270;2023-03-22T07:14:36;37.27;;;34.27;;
3633;SDS011;1833;42.718;23.270;2023-03-22T07:17:04;37.93;;;34.97;;
3633;SDS011;1833;42.718;23.270;2023-03-22T07:19:32;37.40;;;34.40;;
3633;SDS011;1833;42.718;23.270;2023-03-22T07:22:00;33.90;;;31.13;;
3633;SDS011;1833;42.718;23.270;2023-03-22T07:24:27;32.43;;;30.13;;
3633;SDS011;1833;42.718;23.270;2023-03-22T07:26:56;33.20;;;30.80;;
3633;SDS011;1833;42.718;23.270;2023-03-22T07:29:23;31.93;;;29.57;;
3633;SDS011;1833;42.718;23.270;2023-03-22T07:31:51;30.30;;;28.03;;
3633;SDS011;1833;42.718;23.270;2023-03-22T07:34:18;29.73;;;27.20;;
3633;SDS011;1833;42.718;23.270;2023-03-22T07:36:46;30.90;;;28.70;;
3633;SDS011;1833;42.718;23.270;2023-03-22T07:39:13;29.93;;;27.83;;
3633;SDS011;1833;42.718;23.270;2023-03-22T07:41:41;29.37;;;27.27;;
3633;SDS011;1833;42.718;23.270;2023-03-22T07:44:09;29.17;;;26.93;;
3633;SDS011;1833;42.718;23.270;2023-03-22T07:46:37;29.40;;;27.00;;
3633;SDS011;1833;42.718;23.270;2023-03-22T07:49:04;29.47;;;26.97;;
3633;SDS011;1833;42.718;23.270;2023-03-22T07:51:31;28.50;;;26.33;;
3633;SDS011;1833;42.718;23.270;2023-03-22T07:54:01;28.20;;;26.00;;
3633;SDS011;1833;42.718;23.270;2023-03-22T07:56:28;28.27;;;25.80;;
3633;SDS011;1833;42.718;23.270;2023-03-22T07:58:56;25.80;;;23.83;;
3633;SDS011;1833;42.718;23.270;2023-03-22T08:01:25;27.23;;;25.07;;
3633;SDS011;1833;42.718;23.270;2023-03-22T08:03:52;26.70;;;24.70;;
3633;SDS011;1833;42.718;23.270;2023-03-22T08:06:20;27.40;;;25.30;;
3633;SDS011;1833;42.718;23.270;2023-03-22T08:08:47;29.60;;;27.20;;
3633;SDS011;1833;42.718;23.270;2023-03-22T08:11:15;61.47;;;43.63;;
3633;SDS011;1833;42.718;23.270;2023-03-22T08:13:42;26.93;;;24.93;;
3633;SDS011;1833;42.718;23.270;2023-03-22T08:16:09;27.43;;;25.40;;
3633;SDS011;1833;42.718;23.270;2023-03-22T08:18:38;27.60;;;25.43;;
3633;SDS011;1833;42.718;23.270;2023-03-22T08:21:06;27.03;;;24.93;;
3633;SDS011;1833;42.718;23.270;2023-03-22T08:23:33;25.60;;;23.67;;
3633;SDS011;1833;42.718;23.270;2023-03-22T08:26:00;26.93;;;24.97;;
3633;SDS011;1833;42.718;23.270;2023-03-22T08:28:29;24.13;;;22.43;;
3633;SDS011;1833;42.718;23.270;2023-03-22T08:30:56;26.30;;;24.30;;
3633;SDS011;1833;42.718;23.270;2023-03-22T08:33:24;27.67;;;25.60;;
3633;SDS011;1833;42.718;23.270;2023-03-22T08:36:02;30.90;;;28.40;;
3633;SDS011;1833;42.718;23.270;2023-03-22T08:38:29;31.60;;;29.30;;
3633;SDS011;1833;42.718;23.270;2023-03-22T08:40:57;29.30;;;27.00;;
3633;SDS011;1833;42.718;23.270;2023-03-22T08:43:24;28.67;;;26.17;;
3633;SDS011;1833;42.718;23.270;2023-03-22T08:45:51;28.83;;;26.70;;
3633;SDS011;1833;42.718;23.270;2023-03-22T08:48:19;30.57;;;28.17;;
3633;SDS011;1833;42.718;23.270;2023-03-22T08:50:47;29.00;;;27.00;;
3633;SDS011;1833;42.718;23.270;2023-03-22T08:53:17;26.77;;;24.87;;
3633;SDS011;1833;42.718;23.270;2023-03-22T08:55:45;30.57;;;28.10;;
3633;SDS011;1833;42.718;23.270;2023-03-22T08:58:13;31.13;;;28.87;;
3633;SDS011;1833;42.718;23.270;2023-03-22T09:00:43;29.77;;;27.57;;
3633;SDS011;1833;42.718;23.270;2023-03-22T09:03:10;29.33;;;27.17;;
3633;SDS011;1833;42.718;23.270;2023-03-22T09:05:38;26.80;;;24.80;;
3633;SDS011;1833;42.718;23.270;2023-03-22T09:08:05;30.20;;;27.90;;
3633;SDS011;1833;42.718;23.270;2023-03-22T09:10:38;29.43;;;27.23;;
3633;SDS011;1833;42.718;23.270;2023-03-22T09:13:05;30.00;;;27.80;;
3633;SDS011;1833;42.718;23.270;2023-03-22T09:15:33;28.13;;;26.00;;
3633;SDS011;1833;42.718;23.270;2023-03-22T09:18:01;28.30;;;26.30;;
3633;SDS011;1833;42.718;23.270;2023-03-22T09:20:29;32.00;;;29.30;;
3633;SDS011;1833;42.718;23.270;2023-03-22T09:22:56;31.23;;;28.73;;
3633;SDS011;1833;42.718;23.270;2023-03-22T09:25:24;28.10;;;26.10;;
3633;SDS011;1833;42.718;23.270;2023-03-22T09:27:53;30.23;;;28.03;;
3633;SDS011;1833;42.718;23.270;2023-03-22T09:30:21;29.80;;;27.60;;
3633;SDS011;1833;42.718;23.270;2023-03-22T09:32:48;29.80;;;27.50;;
3633;SDS011;1833;42.718;23.270;2023-03-22T09:35:16;31.63;;;29.03;;
3633;SDS011;1833;42.718;23.270;2023-03-22T09:37:43;30.00;;;27.60;;
3633;SDS011;1833;42.718;23.270;2023-03-22T09:40:11;31.50;;;29.10;;
3633;SDS011;1833;42.718;23.270;2023-03-22T09:42:40;29.70;;;27.50;;
3633;SDS011;1833;42.718;23.270;2023-03-22T09:45:13;29.97;;;27.57;;
3633;SDS011;1833;42.718;23.270;2023-03-22T09:47:42;32.27;;;29.87;;
3633;SDS011;1833;42.718;23.270;2023-03-22T09:50:13;31.90;;;29.30;;
3633;SDS011;1833;42.718;23.270;2023-03-22T09:52:41;31.87;;;29.20;;
3633;SDS011;1833;42.718;23.270;2023-03-22T09:55:16;31.40;;;28.70;;
3633;SDS011;1833;42.718;23.270;2023-03-22T09:57:44;32.23;;;29.53;;
3633;SDS011;1833;42.718;23.270;2023-03-22T10:00:16;35.20;;;31.87;;
3633;SDS011;1833;42.718;23.270;2023-03-22T10:02:56;49.70;;;40.73;;
3633;SDS011;1833;42.718;23.270;2023-03-22T10:05:28;34.60;;;31.30;;
3633;SDS011;1833;42.718;23.270;2023-03-22T10:08:06;32.50;;;29.37;;
3633;SDS011;1833;42.718;23.270;2023-03-22T10:10:35;28.33;;;25.73;;
3633;SDS011;1833;42.718;23.270;2023-03-22T10:13:08;28.00;;;25.70;;
3633;SDS011;1833;42.718;23.270;2023-03-22T10:15:41;28.80;;;26.40;;
3633;SDS011;1833;42.718;23.270;2023-03-22T10:18:12;27.10;;;24.90;;
3633;SDS011;1833;42.718;23.270;2023-03-22T10:20:42;24.90;;;22.40;;
3633;SDS011;1833;42.718;23.270;2023-03-22T10:23:13;23.70;;;22.00;;
3633;SDS011;1833;42.718;23.270;2023-03-22T10:25:44;27.20;;;23.80;;
3633;SDS011;1833;42.718;23.270;2023-03-22T10:28:14;22.13;;;20.53;;
3633;SDS011;1833;42.718;23.270;2023-03-22T10:30:56;21.60;;;20.00;;
3633;SDS011;1833;42.718;23.270;2023-03-22T10:33:30;22.00;;;20.50;;
3633;SDS011;1833;42.718;23.270;2023-03-22T10:36:02;22.53;;;20.30;;
3633;SDS011;1833;42.718;23.270;2023-03-22T10:38:30;21.97;;;20.47;;
3633;SDS011;1833;42.718;23.270;2023-03-22T10:40:58;19.80;;;18.50;;
3633;SDS011;1833;42.718;23.270;2023-03-22T10:43:27;21.00;;;19.43;;
3633;SDS011;1833;42.718;23.270;2023-03-22T10:45:58;20.40;;;18.90;;
3633;SDS011;1833;42.718;23.270;2023-03-22T10:48:28;20.67;;;19.37;;
3633;SDS011;1833;42.718;23.270;2023-03-22T10:50:58;21.47;;;20.07;;
3633;SDS011;1833;42.718;23.270;2023-03-22T10:53:31;20.27;;;18.97;;
3633;SDS011;1833;42.718;23.270;2023-03-22T10:56:08;20.80;;;19.40;;
3633;SDS011;1833;42.718;23.270;2023-03-22T10:58:37;21.07;;;19.67;;
3633;SDS011;1833;42.718;23.270;2023-03-22T11:01:07;23.80;;;22.20;;
3633;SDS011;1833;42.718;23.270;2023-03-22T11:03:37;25.97;;;24.27;;
3633;SDS011;1833;42.718;23.270;2023-03-22T11:06:07;28.50;;;26.60;;
3633;SDS011;1833;42.718;23.270;2023-03-22T11:08:39;27.83;;;26.03;;
3633;SDS011;1833;42.718;23.270;2023-03-22T11:11:13;28.40;;;26.30;;
3633;SDS011;1833;42.718;23.270;2023-03-22T11:13:47;26.33;;;24.63;;
3633;SDS011;1833;42.718;23.270;2023-03-22T11:16:17;28.23;;;26.33;;
3633;SDS011;1833;42.718;23.270;2023-03-22T11:18:47;28.70;;;26.57;;
3633;SDS011;1833;42.718;23.270;2023-03-22T11:21:16;28.17;;;26.30;;
3633;SDS011;1833;42.718;23.270;2023-03-22T11:23:48;28.73;;;26.37;;
3633;SDS011;1833;42.718;23.270;2023-03-22T11:26:23;29.57;;;27.10;;
3633;SDS011;1833;42.718;23.270;2023-03-22T11:29:06;27.60;;;25.60;;
3633;SDS011;1833;42.718;23.270;2023-03-22T11:31:48;28.90;;;26.90;;
3633;SDS011;1833;42.718;23.270;2023-03-22T11:34:20;32.10;;;29.53;;
3633;SDS011;1833;42.718;23.270;2023-03-22T11:36:48;28.00;;;26.10;;
3633;SDS011;1833;42.718;23.270;2023-03-22T11:39:59;26.30;;;24.70;;
3633;SDS011;1833;42.718;23.270;2023-03-22T11:45:22;27.40;;;25.50;;
3633;SDS011;1833;42.718;23.270;2023-03-22T11:47:55;29.07;;;27.10;;
3633;SDS011;1833;42.718;23.270;2023-03-22T11:50:29;29.73;;;27.53;;
3633;SDS011;1833;42.718;23.270;2023-03-22T11:53:00;27.80;;;25.90;;
3633;SDS011;1833;42.718;23.270;2023-03-22T11:55:28;31.80;;;29.70;;
3633;SDS011;1833;42.718;23.270;2023-03-22T11:58:00;31.50;;;29.10;;
3633;SDS011;1833;42.718;23.270;2023-03-22T12:00:30;31.93;;;29.37;;
3633;SDS011;1833;42.718;23.270;2023-03-22T12:03:05;30.00;;;27.87;;
3633;SDS011;1833;42.718;23.270;2023-03-22T12:05:34;30.10;;;27.90;;
3633;SDS011;1833;42.718;23.270;2023-03-22T12:08:05;38.33;;;34.23;;
3633;SDS011;1833;42.718;23.270;2023-03-22T12:10:40;27.30;;;25.60;;
3633;SDS011;1833;42.718;23.270;2023-03-22T12:13:09;24.10;;;22.50;;
3633;SDS011;1833;42.718;23.270;2023-03-22T12:15:39;23.23;;;21.67;;
3633;SDS011;1833;42.718;23.270;2023-03-22T12:18:17;24.17;;;22.63;;
3633;SDS011;1833;42.718;23.270;2023-03-22T12:20:47;22.27;;;20.77;;
3633;SDS011;1833;42.718;23.270;2023-03-22T12:23:28;20.70;;;19.50;;
3633;SDS011;1833;42.718;23.270;2023-03-22T12:25:56;19.50;;;18.20;;
3633;SDS011;1833;42.718;23.270;2023-03-22T12:28:25;20.03;;;18.80;;
3633;SDS011;1833;42.718;23.270;2023-03-22T12:30:54;21.20;;;19.73;;
3633;SDS011;1833;42.718;23.270;2023-03-22T12:33:24;20.63;;;19.13;;
3633;SDS011;1833;42.718;23.270;2023-03-22T12:35:55;20.60;;;19.00;;
3633;SDS011;1833;42.718;23.270;2023-03-22T12:38:25;20.87;;;19.47;;
3633;SDS011;1833;42.718;23.270;2023-03-22T12:40:54;22.10;;;20.30;;
3633;SDS011;1833;42.718;23.270;2023-03-22T12:43:26;25.27;;;22.97;;
3633;SDS011;1833;42.718;23.270;2023-03-22T12:46:00;24.23;;;22.03;;
3633;SDS011;1833;42.718;23.270;2023-03-22T12:48:31;26.10;;;23.73;;
3633;SDS011;1833;42.718;23.270;2023-03-22T12:51:00;25.90;;;23.57;;
3633;SDS011;1833;42.718;23.270;2023-03-22T12:53:31;26.17;;;23.87;;
3633;SDS011;1833;42.718;23.270;2023-03-22T12:56:07;26.60;;;24.30;;
3633;SDS011;1833;42.718;23.270;2023-03-22T12:58:35;26.90;;;24.60;;
3633;SDS011;1833;42.718;23.270;2023-03-22T13:01:08;23.93;;;21.93;;
3633;SDS011;1833;42.718;23.270;2023-03-22T13:03:43;24.90;;;22.80;;
3633;SDS011;1833;42.718;23.270;2023-03-22T13:09:00;24.30;;;22.20;;
3633;SDS011;1833;42.718;23.270;2023-03-22T13:11:28;26.43;;;24.00;;
3633;SDS011;1833;42.718;23.270;2023-03-22T13:14:00;26.57;;;24.27;;
3633;SDS011;1833;42.718;23.270;2023-03-22T13:19:28;36.47;;;24.90;;
3633;SDS011;1833;42.718;23.270;2023-03-22T13:25:00;29.87;;;27.00;;
3633;SDS011;1833;42.718;23.270;2023-03-22T13:27:36;27.03;;;24.47;;
3633;SDS011;1833;42.718;23.270;2023-03-22T13:30:05;27.03;;;24.43;;
3633;SDS011;1833;42.718;23.270;2023-03-22T13:32:47;28.33;;;25.53;;
3633;SDS011;1833;42.718;23.270;2023-03-22T13:35:34;28.57;;;25.97;;
3633;SDS011;1833;42.718;23.270;2023-03-22T13:38:06;27.27;;;24.77;;
3633;SDS011;1833;42.718;23.270;2023-03-22T13:40:34;28.10;;;25.47;;
3633;SDS011;1833;42.718;23.270;2023-03-22T13:43:07;26.50;;;24.30;;
3633;SDS011;1833;42.718;23.270;2023-03-22T13:45:36;26.17;;;23.70;;
3633;SDS011;1833;42.718;23.270;2023-03-22T13:48:27;28.07;;;25.40;;
3633;SDS011;1833;42.718;23.270;2023-03-22T13:50:59;26.07;;;23.60;;
3633;SDS011;1833;42.718;23.270;2023-03-22T13:53:34;27.60;;;25.17;;
3633;SDS011;1833;42.718;23.270;2023-03-22T13:56:03;27.93;;;24.90;;
3633;SDS011;1833;42.718;23.270;2023-03-22T13:58:33;26.90;;;24.20;;
3633;SDS011;1833;42.718;23.270;2023-03-22T14:01:01;30.00;;;25.77;;
3633;SDS011;1833;42.718;23.270;2023-03-22T14:03:30;25.80;;;23.70;;
3633;SDS011;1833;42.718;23.270;2023-03-22T14:06:06;26.43;;;24.17;;
3633;SDS011;1833;42.718;23.270;2023-03-22T14:08:35;29.13;;;23.93;;
3633;SDS011;1833;42.718;23.270;2023-03-22T14:11:09;27.43;;;24.87;;
3633;SDS011;1833;42.718;23.270;2023-03-22T14:13:40;27.73;;;25.13;;
3633;SDS011;1833;42.718;23.270;2023-03-22T14:16:11;27.97;;;25.37;;
3633;SDS011;1833;42.718;23.270;2023-03-22T14:18:43;26.80;;;24.40;;
3633;SDS011;1833;42.718;23.270;2023-03-22T14:21:17;27.83;;;25.33;;
3633;SDS011;1833;42.718;23.270;2023-03-22T14:23:45;28.00;;;25.20;;
3633;SDS011;1833;42.718;23.270;2023-03-22T14:26:14;28.73;;;25.60;;
3633;SDS011;1833;42.718;23.270;2023-03-22T14:28:44;28.40;;;25.80;;
3633;SDS011;1833;42.718;23.270;2023-03-22T14:31:13;28.50;;;25.33;;
3633;SDS011;1833;42.718;23.270;2023-03-22T14:33:43;28.33;;;25.63;;
3633;SDS011;1833;42.718;23.270;2023-03-22T14:36:11;28.53;;;25.57;;
3633;SDS011;1833;42.718;23.270;2023-03-22T14:38:49;34.00;;;28.60;;
3633;SDS011;1833;42.718;23.270;2023-03-22T14:41:22;28.27;;;25.53;;
3633;SDS011;1833;42.718;23.270;2023-03-22T14:43:57;30.60;;;24.90;;
3633;SDS011;1833;42.718;23.270;2023-03-22T14:46:30;28.93;;;26.13;;
3633;SDS011;1833;42.718;23.270;2023-03-22T14:48:59;27.80;;;25.00;;
3633;SDS011;1833;42.718;23.270;2023-03-22T14:51:28;28.10;;;25.13;;
3633;SDS011;1833;42.718;23.270;2023-03-22T14:53:58;27.17;;;24.67;;
3633;SDS011;1833;42.718;23.270;2023-03-22T14:56:27;31.57;;;26.30;;
3633;SDS011;1833;42.718;23.270;2023-03-22T14:58:58;27.60;;;24.80;;
3633;SDS011;1833;42.718;23.270;2023-03-22T15:01:28;27.67;;;25.13;;
3633;SDS011;1833;42.718;23.270;2023-03-22T15:03:58;27.87;;;25.07;;
3633;SDS011;1833;42.718;23.270;2023-03-22T15:06:28;26.13;;;23.70;;
3633;SDS011;1833;42.718;23.270;2023-03-22T15:09:04;27.63;;;25.03;;
3633;SDS011;1833;42.718;23.270;2023-03-22T15:11:32;28.97;;;25.93;;